createdAt,value
2019-04-11T00:01:17.191Z,67.16
2019-04-11T00:03:43.873Z,67.06
2019-04-11T00:06:10.073Z,65.63
2019-04-11T00:08:37.162Z,67.21
2019-04-11T00:11:03.778Z,66.36
2019-04-11T00:13:33.037Z,66.73
2019-04-11T00:15:57.687Z,66.65
2019-04-11T00:18:23.514Z,66.62
2019-04-11T00:20:50.596Z,67.17
2019-04-11T00:23:16.494Z,66.90
2019-04-11T00:25:42.321Z,67.27
2019-04-11T00:28:08.285Z,66.73
2019-04-11T00:30:34.494Z,67.02
2019-04-11T00:33:00.286Z,67.02
2019-04-11T00:35:26.365Z,67.24
2019-04-11T00:37:52.174Z,66.24
2019-04-11T00:40:18.843Z,66.57
2019-04-11T00:42:47.056Z,66.78
2019-04-11T00:45:13.668Z,67.25
2019-04-11T00:47:39.835Z,66.78
2019-04-11T00:50:05.769Z,66.94
2019-04-11T00:52:31.806Z,67.25
2019-04-11T00:54:57.571Z,67.51
2019-04-11T00:57:23.360Z,67.16
2019-04-11T00:59:49.163Z,67.39
2019-04-11T01:02:15.621Z,67.30
2019-04-11T01:04:41.485Z,66.92
2019-04-11T01:07:07.273Z,67.50
2019-04-11T01:09:34.643Z,66.69
2019-04-11T01:12:00.530Z,66.38
2019-04-11T01:14:26.420Z,66.75
2019-04-11T01:16:53.697Z,67.17
2019-04-11T01:19:20.964Z,66.66
2019-04-11T01:21:46.866Z,67.33
2019-04-11T01:24:15.657Z,67.93
2019-04-11T01:26:41.620Z,68.15
2019-04-11T01:29:11.340Z,67.61
2019-04-11T01:31:39.901Z,67.93
2019-04-11T01:34:06.493Z,68.47
2019-04-11T01:36:33.228Z,68.65
2019-04-11T01:39:17.669Z,68.87
2019-04-11T01:41:44.732Z,69.12
2019-04-11T01:44:10.977Z,69.65
2019-04-11T01:46:38.046Z,69.88
2019-04-11T01:49:06.133Z,68.66
2019-04-11T01:51:32.027Z,68.47
2019-04-11T01:53:57.795Z,68.33
2019-04-11T01:56:23.583Z,68.57
2019-04-11T01:58:49.669Z,69.96
2019-04-11T02:01:20.947Z,70.30
2019-04-11T02:04:06.115Z,70.62
2019-04-11T02:06:32.058Z,69.56
2019-04-11T02:11:23.875Z,70.55
2019-04-11T02:13:50.307Z,70.64
2019-04-11T02:16:16.787Z,71.45
2019-04-11T02:18:43.649Z,71.23
2019-04-11T02:21:09.532Z,71.68
2019-04-11T02:26:41.072Z,71.54
2019-04-11T02:29:08.991Z,71.90
2019-04-11T02:31:36.521Z,71.94
2019-04-11T02:34:04.415Z,72.26
2019-04-11T02:36:32.157Z,72.00
2019-04-11T02:39:02.160Z,71.97
2019-04-11T02:41:27.518Z,72.09
2019-04-11T02:43:55.056Z,70.92
2019-04-11T02:46:31.936Z,72.59
2019-04-11T02:48:49.783Z,72.44
2019-04-11T02:51:15.875Z,72.40
2019-04-11T02:53:41.926Z,72.19
2019-04-11T02:56:09.310Z,73.01
2019-04-11T02:58:39.142Z,73.34
2019-04-11T03:01:07.922Z,73.70
2019-04-11T03:03:34.197Z,73.33
2019-04-11T03:06:02.173Z,73.68
2019-04-11T03:08:29.825Z,74.23
2019-04-11T03:10:57.504Z,73.67
2019-04-11T03:13:25.253Z,73.64
2019-04-11T03:16:07.184Z,73.23
2019-04-11T03:18:40.730Z,73.49
2019-04-11T03:20:54.891Z,73.66
2019-04-11T03:23:18.691Z,73.78
2019-04-11T03:25:44.875Z,73.92
2019-04-11T03:28:16.756Z,73.85
2019-04-11T03:31:01.799Z,74.62
2019-04-11T03:36:27.541Z,74.71
2019-04-11T03:38:29.309Z,74.88
2019-04-11T03:40:54.013Z,74.84
2019-04-11T03:43:13.378Z,74.32
2019-04-11T03:45:49.638Z,75.15
2019-04-11T03:48:10.135Z,75.09
2019-04-11T03:50:26.038Z,74.60
2019-04-11T03:52:51.938Z,74.70
2019-04-11T03:55:19.358Z,75.01
2019-04-11T03:57:47.055Z,75.30
2019-04-11T04:00:15.435Z,75.96
2019-04-11T04:02:41.430Z,75.98
2019-04-11T04:05:08.788Z,75.99
2019-04-11T04:07:35.980Z,75.97
2019-04-11T04:10:05.194Z,75.53
2019-04-11T04:12:33.403Z,75.87
2019-04-11T04:15:03.945Z,75.56
2019-04-11T04:17:32.843Z,75.94
2019-04-11T04:20:04.941Z,76.07
2019-04-11T04:22:49.958Z,75.84
2019-04-11T04:25:16.645Z,76.10
2019-04-11T04:27:43.033Z,76.26
2019-04-11T04:30:13.694Z,75.83
2019-04-11T04:32:40.529Z,76.29
2019-04-11T04:35:10.429Z,76.27
2019-04-11T04:37:34.849Z,76.07
2019-04-11T04:40:21.637Z,76.49
2019-04-11T04:42:35.869Z,76.46
2019-04-11T04:44:58.288Z,76.93
2019-04-11T04:47:32.640Z,76.97
2019-04-11T04:49:52.378Z,76.37
2019-04-11T04:52:20.806Z,76.93
2019-04-11T04:54:48.341Z,76.79
2019-04-11T04:57:15.525Z,76.44
2019-04-11T04:59:42.544Z,76.21
2019-04-11T05:02:10.530Z,76.22
2019-04-11T05:04:38.148Z,75.89
2019-04-11T05:07:05.291Z,75.87
2019-04-11T05:09:32.048Z,76.46
2019-04-11T05:11:57.948Z,75.26
2019-04-11T05:14:25.261Z,74.47
2019-04-11T05:16:52.531Z,74.76
2019-04-11T05:19:22.560Z,74.90
2019-04-11T05:21:49.903Z,74.20
2019-04-11T05:24:18.686Z,75.05
2019-04-11T05:26:44.585Z,75.16
2019-04-11T05:29:11.269Z,75.19
2019-04-11T05:31:38.726Z,74.09
2019-04-11T05:34:07.819Z,73.62
2019-04-11T05:36:34.017Z,74.15
2019-04-11T05:39:04.914Z,74.08
2019-04-11T05:41:33.704Z,72.91
2019-04-11T05:44:03.453Z,72.81
2019-04-11T05:46:35.360Z,72.58
2019-04-11T05:49:00.527Z,73.04
2019-04-11T05:51:26.437Z,72.87
2019-04-11T05:53:54.491Z,72.82
2019-04-11T05:56:21.933Z,71.89
2019-04-11T05:58:47.993Z,71.63
2019-04-11T06:01:18.253Z,70.61
2019-04-11T06:03:45.489Z,70.40
2019-04-11T06:06:16.395Z,71.20
2019-04-11T06:08:44.045Z,71.12
2019-04-11T06:11:17.270Z,70.86
2019-04-11T06:16:12.549Z,69.82
2019-04-11T06:21:46.949Z,68.96
2019-04-11T06:24:27.966Z,68.74
2019-04-11T06:27:11.382Z,68.44
2019-04-11T06:29:55.902Z,68.34
2019-04-11T06:32:29.908Z,68.41
2019-04-11T06:34:57.846Z,68.20
2019-04-11T06:37:42.028Z,67.20
2019-04-11T06:40:26.425Z,66.70
2019-04-11T06:42:55.952Z,66.27
2019-04-11T06:45:41.838Z,65.60
2019-04-11T06:48:15.697Z,66.46
2019-04-11T06:50:47.195Z,65.61
2019-04-11T06:53:14.839Z,65.75
2019-04-11T06:55:45.318Z,64.86
2019-04-11T06:58:16.181Z,63.92
2019-04-11T07:00:43.903Z,62.64
2019-04-11T07:03:19.626Z,62.28
2019-04-11T07:05:40.627Z,61.34
2019-04-11T07:08:07.697Z,61.10
2019-04-11T07:10:44.737Z,60.10
2019-04-11T07:13:30.900Z,59.46
2019-04-11T07:16:18.462Z,59.08
2019-04-11T07:18:52.764Z,57.04
2019-04-11T07:21:19.086Z,55.75
2019-04-11T07:24:03.468Z,54.81
2019-04-11T07:26:37.584Z,53.80
2019-04-11T07:31:58.886Z,53.33
2019-04-11T07:34:35.174Z,51.95
2019-04-11T07:37:06.698Z,51.29
2019-04-11T07:39:51.842Z,50.10
2019-04-11T07:42:25.968Z,48.83
2019-04-11T07:44:53.854Z,47.36
2019-04-11T07:47:26.428Z,49.31
2019-04-11T07:49:55.221Z,48.27
2019-04-11T07:52:25.001Z,48.11
2019-04-11T07:54:51.405Z,48.21
2019-04-11T07:57:33.005Z,48.19
2019-04-11T08:00:17.081Z,47.99
2019-04-11T08:03:02.051Z,48.03
2019-04-11T08:05:46.803Z,48.71
2019-04-11T08:08:34.586Z,48.14
2019-04-11T08:11:02.720Z,48.36
2019-04-11T08:13:36.926Z,48.81
2019-04-11T08:16:20.388Z,49.73
2019-04-11T08:18:54.230Z,50.31
2019-04-11T08:21:24.419Z,50.64
2019-04-11T08:23:52.144Z,50.25
2019-04-11T08:26:35.847Z,50.84
2019-04-11T08:29:08.971Z,49.96
2019-04-11T08:31:34.637Z,50.10
2019-04-11T08:34:00.690Z,51.04
2019-04-11T08:36:47.217Z,50.42
2019-04-11T08:39:15.842Z,49.83
2019-04-11T08:41:47.552Z,50.94
2019-04-11T08:44:13.543Z,51.00
2019-04-11T08:46:42.689Z,50.32
2019-04-11T08:49:28.644Z,50.74
2019-04-11T08:51:54.393Z,49.09
2019-04-11T08:54:37.631Z,50.14
2019-04-11T08:57:03.898Z,49.72
2019-04-11T08:59:31.886Z,50.49
2019-04-11T09:01:58.225Z,48.57
2019-04-11T09:04:43.294Z,48.71
2019-04-11T09:07:10.688Z,49.57
2019-04-11T09:09:56.153Z,49.38
2019-04-11T09:12:22.624Z,48.28
2019-04-11T09:14:50.686Z,48.62
2019-04-11T09:17:19.564Z,49.28
2019-04-11T09:19:55.019Z,48.84
2019-04-11T09:22:26.891Z,48.86
2019-04-11T09:25:10.905Z,49.05
2019-04-11T09:27:45.019Z,48.40
2019-04-11T09:30:32.673Z,47.01
2019-04-11T09:33:17.456Z,46.79
2019-04-11T09:35:55.474Z,47.61
2019-04-11T09:38:26.520Z,46.35
2019-04-11T09:41:00.545Z,47.04
2019-04-11T09:43:31.776Z,47.02
2019-04-11T09:46:18.570Z,46.39
2019-04-11T09:48:46.475Z,46.66
2019-04-11T09:51:33.758Z,47.34
2019-04-11T09:54:01.585Z,47.33
2019-04-11T09:56:45.172Z,47.08
2019-04-11T09:59:25.129Z,46.23
2019-04-11T10:02:10.112Z,45.01
2019-04-11T10:04:37.241Z,45.23
2019-04-11T10:07:21.757Z,45.26
2019-04-11T10:10:04.594Z,44.83
2019-04-11T10:12:48.908Z,44.75
2019-04-11T10:15:15.463Z,44.39
2019-04-11T10:18:01.009Z,44.32
2019-04-11T10:20:26.947Z,43.75
2019-04-11T10:23:04.969Z,43.69
2019-04-11T10:25:32.973Z,42.54
2019-04-11T10:28:03.282Z,43.32
2019-04-11T10:30:33.593Z,42.59
2019-04-11T10:33:02.854Z,43.56
2019-04-11T10:35:46.214Z,42.78
2019-04-11T10:38:14.068Z,43.00
2019-04-11T10:40:44.228Z,42.08
2019-04-11T10:43:10.042Z,41.30
2019-04-11T10:45:46.954Z,41.96
2019-04-11T10:48:13.890Z,42.42
2019-04-11T10:50:58.473Z,42.27
2019-04-11T10:53:24.940Z,41.23
2019-04-11T10:56:10.649Z,40.10
2019-04-11T10:58:38.871Z,42.80
2019-04-11T11:01:07.524Z,41.08
2019-04-11T11:03:53.462Z,40.81
2019-04-11T11:06:21.869Z,39.92
2019-04-11T11:09:05.937Z,40.95
2019-04-11T11:11:34.571Z,40.75
2019-04-11T11:14:05.184Z,40.33
2019-04-11T11:16:34.183Z,40.24
2019-04-11T11:19:33.572Z,40.24
2019-04-11T11:21:45.045Z,38.56
2019-04-11T11:24:31.690Z,39.39
2019-04-11T11:26:58.773Z,39.15
2019-04-11T11:29:30.092Z,38.76
2019-04-11T11:31:57.866Z,39.83
2019-04-11T11:34:25.595Z,39.14
2019-04-11T11:36:54.819Z,37.96
2019-04-11T11:39:33.214Z,38.08
2019-04-11T11:42:17.936Z,38.08
2019-04-11T11:44:53.003Z,37.94
2019-04-11T11:47:39.749Z,37.64
2019-04-11T11:50:11.461Z,37.64
2019-04-11T11:52:54.125Z,37.64
2019-04-11T11:55:25.177Z,37.22
2019-04-11T11:57:53.187Z,37.22
2019-04-11T12:00:21.309Z,37.25
2019-04-11T12:02:58.989Z,37.76
2019-04-11T12:05:29.956Z,37.76
2019-04-11T12:07:58.104Z,36.35
2019-04-11T12:10:26.301Z,35.57
2019-04-11T12:12:54.269Z,35.57
2019-04-11T12:15:22.797Z,35.83
2019-04-11T12:18:09.881Z,36.87
2019-04-11T12:20:45.316Z,36.24
2019-04-11T12:23:29.525Z,36.71
2019-04-11T12:25:55.747Z,36.29
2019-04-11T12:28:23.559Z,37.08
2019-04-11T12:30:53.063Z,35.53
2019-04-11T12:33:37.903Z,35.62
2019-04-11T12:36:09.811Z,35.69
2019-04-11T12:38:54.785Z,34.66
2019-04-11T12:41:25.262Z,36.30
2019-04-11T12:44:08.177Z,35.20
2019-04-11T12:46:48.062Z,35.29
2019-04-11T12:49:27.972Z,35.12
2019-04-11T12:52:12.922Z,36.89
2019-04-11T12:54:40.931Z,35.44
2019-04-11T12:57:25.779Z,35.80
2019-04-11T12:59:53.476Z,35.21
2019-04-11T13:02:33.275Z,34.61
2019-04-11T13:05:00.086Z,34.02
2019-04-11T13:07:33.705Z,34.52
2019-04-11T13:10:01.574Z,34.43
2019-04-11T13:12:34.876Z,33.94
2019-04-11T13:15:08.235Z,35.24
2019-04-11T13:17:52.893Z,34.48
2019-04-11T13:20:37.606Z,34.57
2019-04-11T13:23:21.962Z,34.44
2019-04-11T13:26:07.730Z,35.09
2019-04-11T13:28:33.640Z,34.72
2019-04-11T13:31:01.400Z,34.45
2019-04-11T13:33:27.206Z,34.09
2019-04-11T13:36:11.812Z,34.76
2019-04-11T13:38:38.077Z,35.21
2019-04-11T13:41:22.552Z,35.02
2019-04-11T13:43:50.247Z,32.66
2019-04-11T13:46:39.982Z,35.03
2019-04-11T13:49:19.613Z,33.85
2019-04-11T13:52:03.929Z,34.80
2019-04-11T13:54:34.660Z,34.72
2019-04-11T13:57:05.335Z,33.38
2019-04-11T13:59:35.915Z,33.29
2019-04-11T14:02:14.724Z,33.69
2019-04-11T14:04:48.624Z,34.02
2019-04-11T14:07:18.644Z,34.22
2019-04-11T14:10:04.425Z,32.86
2019-04-11T14:12:33.325Z,33.27
2019-04-11T14:15:01.274Z,31.94
2019-04-11T14:17:45.550Z,31.87
2019-04-11T14:20:29.115Z,31.75
2019-04-11T14:23:02.503Z,31.66
2019-04-11T14:25:36.630Z,30.47
2019-04-11T14:28:04.777Z,32.61
2019-04-11T14:30:34.997Z,32.47
2019-04-11T14:33:01.091Z,31.64
2019-04-11T14:35:37.985Z,31.55
2019-04-11T14:38:11.496Z,31.97
2019-04-11T14:40:45.406Z,31.83
2019-04-11T14:43:19.406Z,32.07
2019-04-11T14:45:53.097Z,31.98
2019-04-11T14:48:20.921Z,31.27
2019-04-11T14:50:57.847Z,31.57
2019-04-11T14:53:41.078Z,31.41
2019-04-11T14:56:11.491Z,29.89
2019-04-11T14:58:59.598Z,30.74
2019-04-11T15:01:28.188Z,30.55
2019-04-11T15:04:14.052Z,29.80
2019-04-11T15:06:45.209Z,30.07
2019-04-11T15:09:16.898Z,30.46
2019-04-11T15:11:47.123Z,30.44
2019-04-11T15:14:15.788Z,29.52
2019-04-11T15:16:50.764Z,29.85
2019-04-11T15:19:16.598Z,29.61
2019-04-11T15:22:01.349Z,29.25
2019-04-11T15:24:27.161Z,28.55
2019-04-11T15:27:11.611Z,29.49
2019-04-11T15:29:40.793Z,29.77
2019-04-11T15:32:23.414Z,29.99
2019-04-11T15:34:49.824Z,29.86
2019-04-11T15:37:35.432Z,29.30
2019-04-11T15:40:12.142Z,29.89
2019-04-11T15:42:42.615Z,29.43
2019-04-11T15:45:27.143Z,29.11
2019-04-11T15:48:06.890Z,29.76
2019-04-11T15:50:50.906Z,30.58
2019-04-11T15:53:28.140Z,30.03
2019-04-11T15:56:13.229Z,30.92
2019-04-11T15:58:57.569Z,30.92
2019-04-11T16:01:44.957Z,30.78
2019-04-11T16:04:27.898Z,30.66
2019-04-11T16:07:08.647Z,31.04
2019-04-11T16:09:34.848Z,31.00
2019-04-11T16:12:09.188Z,31.78
2019-04-11T16:14:34.988Z,31.61
2019-04-11T16:17:13.410Z,31.81
2019-04-11T16:19:40.911Z,31.40
2019-04-11T16:22:25.604Z,32.78
2019-04-11T16:24:53.293Z,32.76
2019-04-11T16:27:27.084Z,33.17
2019-04-11T16:30:04.146Z,33.23
2019-04-11T16:32:32.132Z,33.16
2019-04-11T16:35:02.662Z,34.55
2019-04-11T16:37:29.055Z,34.38
2019-04-11T16:40:13.734Z,34.37
2019-04-11T16:42:41.520Z,33.30
2019-04-11T16:45:25.984Z,34.65
2019-04-11T16:47:56.971Z,35.23
2019-04-11T16:50:26.117Z,35.79
2019-04-11T16:52:52.193Z,35.76
2019-04-11T16:55:21.033Z,36.39
2019-04-11T16:57:47.133Z,37.11
2019-04-11T17:00:20.426Z,37.14
2019-04-11T17:02:44.288Z,37.28
2019-04-11T17:05:10.413Z,37.28
2019-04-11T17:07:45.141Z,38.24
2019-04-11T17:10:12.879Z,38.44
2019-04-11T17:12:38.670Z,38.97
2019-04-11T17:15:05.064Z,39.26
2019-04-11T17:17:31.582Z,40.03
2019-04-11T17:19:57.749Z,39.65
2019-04-11T17:22:23.574Z,40.76
2019-04-11T17:24:49.652Z,40.82
2019-04-11T17:27:15.479Z,41.50
2019-04-11T17:29:44.067Z,41.60
2019-04-11T17:32:09.880Z,42.37
2019-04-11T17:34:35.764Z,42.26
2019-04-11T17:37:02.878Z,42.09
2019-04-11T17:39:29.223Z,41.87
2019-04-11T17:41:55.018Z,43.22
2019-04-11T17:44:21.082Z,43.57
2019-04-11T17:46:50.160Z,43.96
2019-04-11T17:49:16.218Z,44.54
2019-04-11T17:51:55.334Z,44.68
2019-04-11T17:54:12.872Z,45.06
2019-04-11T17:56:42.039Z,45.13
2019-04-11T17:59:07.852Z,45.22
2019-04-11T18:01:37.815Z,45.25
2019-04-11T18:04:01.879Z,45.30
2019-04-11T18:06:28.575Z,45.04
2019-04-11T18:08:54.691Z,45.29
2019-04-11T18:11:20.636Z,45.99
2019-04-11T18:13:46.464Z,45.51
2019-04-11T18:16:12.551Z,45.77
2019-04-11T18:18:41.121Z,46.36
2019-04-11T18:21:07.926Z,46.41
2019-04-11T18:23:37.186Z,46.43
2019-04-11T18:26:03.923Z,46.50
2019-04-11T18:28:30.042Z,45.96
2019-04-11T18:30:55.874Z,45.64
2019-04-11T18:33:24.793Z,46.47
2019-04-11T18:35:50.954Z,47.48
2019-04-11T18:38:19.538Z,46.67
2019-04-11T18:40:45.625Z,47.44
2019-04-11T18:43:16.275Z,47.57
2019-04-11T18:45:42.800Z,47.02
2019-04-11T18:48:08.627Z,46.59
2019-04-11T18:50:34.799Z,47.20
2019-04-11T18:53:00.635Z,46.66
2019-04-11T18:55:26.952Z,46.67
2019-04-11T18:57:52.757Z,47.33
2019-04-11T19:00:23.160Z,47.46
2019-04-11T19:02:49.222Z,46.85
2019-04-11T19:05:15.529Z,47.62
2019-04-11T19:07:43.083Z,47.99
2019-04-11T19:10:14.956Z,47.18
2019-04-11T19:12:40.678Z,47.75
2019-04-11T19:15:06.898Z,47.87
2019-04-11T19:17:32.796Z,47.96
2019-04-11T19:20:03.001Z,47.72
2019-04-11T19:22:37.587Z,47.25
2019-04-11T19:24:56.537Z,47.81
2019-04-11T19:27:22.389Z,47.84
2019-04-11T19:29:48.569Z,48.14
2019-04-11T19:32:14.384Z,48.43
2019-04-11T19:34:40.229Z,48.08
2019-04-11T19:37:06.012Z,48.69
2019-04-11T19:39:31.815Z,49.56
2019-04-11T19:41:59.913Z,50.18
2019-04-11T19:44:25.758Z,50.52
2019-04-11T19:46:51.831Z,51.29
2019-04-11T19:49:17.866Z,51.67
2019-04-11T19:51:43.682Z,51.80
2019-04-11T19:54:14.532Z,51.37
2019-04-11T19:56:45.933Z,51.80
2019-04-11T19:59:11.739Z,51.41
2019-04-11T20:01:37.839Z,51.83
2019-04-11T20:04:03.686Z,51.71
2019-04-11T20:06:29.475Z,51.52
2019-04-11T20:08:58.308Z,51.86
2019-04-11T20:11:24.111Z,51.75
2019-04-11T20:13:51.201Z,52.13
2019-04-11T20:16:17.088Z,51.63
2019-04-11T20:18:51.392Z,51.86
2019-04-11T20:21:16.219Z,51.44
2019-04-11T20:23:42.476Z,52.08
2019-04-11T20:26:08.306Z,52.09
2019-04-11T20:28:37.215Z,52.20
2019-04-11T20:31:03.031Z,52.31
2019-04-11T20:33:33.836Z,52.40
2019-04-11T20:35:58.712Z,51.79
2019-04-11T20:38:24.557Z,51.67
2019-04-11T20:40:52.631Z,51.84
2019-04-11T20:43:18.584Z,52.20
2019-04-11T20:45:45.011Z,51.69
2019-04-11T20:48:11.111Z,52.26
2019-04-11T20:50:36.920Z,52.32
2019-04-11T20:53:12.675Z,51.67
2019-04-11T20:55:31.314Z,52.18
2019-04-11T20:57:57.269Z,52.34
2019-04-11T21:00:27.825Z,52.09
2019-04-11T21:02:58.126Z,52.11
2019-04-11T21:05:21.907Z,52.60
2019-04-11T21:07:48.061Z,52.39
2019-04-11T21:10:16.957Z,52.76
2019-04-11T21:12:43.185Z,52.94
2019-04-11T21:15:09.501Z,53.08
2019-04-11T21:17:35.409Z,53.31
2019-04-11T21:20:01.836Z,53.55
2019-04-11T21:22:27.644Z,53.96
2019-04-11T21:24:53.459Z,53.77
2019-04-11T21:27:28.532Z,54.08
2019-04-11T21:29:54.122Z,53.98
2019-04-11T21:32:19.942Z,54.25
2019-04-11T21:34:46.074Z,54.33
2019-04-11T21:37:11.870Z,54.30
2019-04-11T21:39:37.686Z,54.56
2019-04-11T21:42:06.731Z,54.27
2019-04-11T21:44:36.006Z,54.89
2019-04-11T21:47:01.429Z,54.98
2019-04-11T21:49:27.510Z,55.50
2019-04-11T21:51:53.613Z,55.36
2019-04-11T21:54:22.436Z,56.06
2019-04-11T21:56:49.593Z,55.94
2019-04-11T21:59:20.051Z,56.04
2019-04-11T22:01:43.948Z,56.43
2019-04-11T22:04:10.362Z,56.30
2019-04-11T22:06:36.163Z,56.96
2019-04-11T22:09:04.814Z,57.22
2019-04-11T22:11:30.134Z,57.37
2019-04-11T22:13:58.888Z,57.30
2019-04-11T22:16:24.654Z,57.50
2019-04-11T22:18:53.519Z,57.54
2019-04-11T22:21:19.618Z,57.86
2019-04-11T22:23:49.254Z,58.29
2019-04-11T22:26:15.134Z,57.97
2019-04-11T22:28:40.976Z,58.05
2019-04-11T22:31:06.772Z,57.98
2019-04-11T22:33:40.529Z,58.57
2019-04-11T22:36:06.621Z,58.44
2019-04-11T22:38:32.440Z,58.81
2019-04-11T22:41:01.549Z,59.13
2019-04-11T22:43:25.975Z,59.06
2019-04-11T22:45:51.853Z,58.96
2019-04-11T22:48:17.643Z,59.15
2019-04-11T22:50:43.474Z,59.74
2019-04-11T22:53:12.815Z,59.87
2019-04-11T22:55:38.950Z,59.77
2019-04-11T22:58:04.703Z,59.73
2019-04-11T23:00:33.554Z,60.13
2019-04-11T23:03:16.886Z,60.07
2019-04-11T23:05:41.243Z,60.51
2019-04-11T23:08:07.080Z,60.63
2019-04-11T23:10:33.223Z,60.73
2019-04-11T23:12:59.006Z,60.77
2019-04-11T23:15:24.826Z,60.45
2019-04-11T23:17:50.922Z,60.19
2019-04-11T23:20:16.709Z,60.19
2019-04-11T23:22:43.478Z,61.19
2019-04-11T23:25:09.540Z,61.33
2019-04-11T23:27:35.630Z,61.49
2019-04-11T23:30:01.853Z,62.07
2019-04-11T23:32:27.958Z,61.67
2019-04-11T23:34:53.803Z,61.44
2019-04-11T23:37:21.114Z,61.78
2019-04-11T23:39:47.595Z,62.05
2019-04-11T23:42:13.398Z,61.56
2019-04-11T23:44:39.350Z,62.02
2019-04-11T23:47:05.174Z,62.55
2019-04-11T23:49:31.315Z,62.67
2019-04-11T23:51:57.375Z,62.85
2019-04-11T23:54:23.470Z,62.64
2019-04-11T23:56:49.288Z,62.86
2019-04-11T23:59:17.889Z,62.55
